sensor_id;sensor_type;location;lat;lon;timestamp;pressure;altitude;pressure_sealevel;temperature;humidity
64610;BME280;51019;46.090;6.350;2023-04-28T00:01:10;96529.78;;;12.24;100.00
64610;BME280;51019;46.090;6.350;2023-04-28T00:03:38;96530.19;;;12.12;100.00
64610;BME280;51019;46.090;6.350;2023-04-28T00:06:05;96528.53;;;12.11;100.00
64610;BME280;51019;46.090;6.350;2023-04-28T00:08:33;96548.03;;;12.26;100.00
64610;BME280;51019;46.090;6.350;2023-04-28T00:11:02;96557.81;;;12.16;100.00
64610;BME280;51019;46.090;6.350;2023-04-28T00:13:31;96549.75;;;12.35;100.00
64610;BME280;51019;46.090;6.350;2023-04-28T00:15:58;96538.88;;;12.30;100.00
64610;BME280;51019;46.090;6.350;2023-04-28T00:18:25;96551.97;;;12.48;100.00
64610;BME280;51019;46.090;6.350;2023-04-28T00:20:55;96533.38;;;12.67;100.00
64610;BME280;51019;46.090;6.350;2023-04-28T00:23:23;96530.81;;;12.75;97.08
64610;BME280;51019;46.090;6.350;2023-04-28T00:25:50;96545.25;;;13.05;92.90
64610;BME280;51019;46.090;6.350;2023-04-28T00:28:20;96540.72;;;13.15;90.48
64610;BME280;51019;46.090;6.350;2023-04-28T00:30:47;96539.50;;;13.09;91.84
64610;BME280;51019;46.090;6.350;2023-04-28T00:33:15;96542.41;;;12.98;97.82
64610;BME280;51019;46.090;6.350;2023-04-28T00:35:42;96543.72;;;12.68;100.00
64610;BME280;51019;46.090;6.350;2023-04-28T00:38:10;96537.50;;;12.69;98.69
64610;BME280;51019;46.090;6.350;2023-04-28T00:40:38;96510.56;;;13.09;89.09
64610;BME280;51019;46.090;6.350;2023-04-28T00:43:05;96517.28;;;13.38;85.78
64610;BME280;51019;46.090;6.350;2023-04-28T00:45:35;96541.81;;;13.47;86.36
64610;BME280;51019;46.090;6.350;2023-04-28T00:48:02;96535.84;;;12.94;98.64
64610;BME280;51019;46.090;6.350;2023-04-28T00:50:31;96532.28;;;13.12;95.72
64610;BME280;51019;46.090;6.350;2023-04-28T00:53:00;96523.81;;;13.26;90.37
64610;BME280;51019;46.090;6.350;2023-04-28T00:55:30;96529.66;;;13.12;92.42
64610;BME280;51019;46.090;6.350;2023-04-28T00:57:59;96521.03;;;13.27;90.20
64610;BME280;51019;46.090;6.350;2023-04-28T01:00:27;96526.47;;;13.34;86.43
64610;BME280;51019;46.090;6.350;2023-04-28T01:02:57;96532.81;;;13.15;92.74
64610;BME280;51019;46.090;6.350;2023-04-28T01:05:25;96534.72;;;13.39;88.17
64610;BME280;51019;46.090;6.350;2023-04-28T01:07:52;96510.31;;;13.21;87.30
64610;BME280;51019;46.090;6.350;2023-04-28T01:10:20;96531.69;;;13.18;93.46
64610;BME280;51019;46.090;6.350;2023-04-28T01:12:47;96517.47;;;13.10;91.60
64610;BME280;51019;46.090;6.350;2023-04-28T01:15:16;96522.16;;;13.25;91.21
64610;BME280;51019;46.090;6.350;2023-04-28T01:17:44;96537.97;;;13.33;93.00
64610;BME280;51019;46.090;6.350;2023-04-28T01:20:14;96521.00;;;13.19;94.58
64610;BME280;51019;46.090;6.350;2023-04-28T01:22:41;96531.44;;;13.45;92.75
64610;BME280;51019;46.090;6.350;2023-04-28T01:25:10;96534.91;;;13.45;90.28
64610;BME280;51019;46.090;6.350;2023-04-28T01:27:38;96503.28;;;13.29;89.40
64610;BME280;51019;46.090;6.350;2023-04-28T01:30:06;96512.31;;;13.27;89.45
64610;BME280;51019;46.090;6.350;2023-04-28T01:32:34;96525.66;;;13.33;90.60
64610;BME280;51019;46.090;6.350;2023-04-28T01:35:01;96511.38;;;13.10;95.10
64610;BME280;51019;46.090;6.350;2023-04-28T01:37:30;96518.09;;;13.30;95.43
64610;BME280;51019;46.090;6.350;2023-04-28T01:39:59;96524.50;;;13.28;95.44
64610;BME280;51019;46.090;6.350;2023-04-28T01:42:28;96522.53;;;13.30;91.00
64610;BME280;51019;46.090;6.350;2023-04-28T01:44:55;96494.97;;;13.08;90.63
64610;BME280;51019;46.090;6.350;2023-04-28T01:47:23;96507.13;;;13.43;87.93
64610;BME280;51019;46.090;6.350;2023-04-28T01:49:50;96501.88;;;13.67;84.48
64610;BME280;51019;46.090;6.350;2023-04-28T01:52:18;96506.03;;;13.94;80.22
64610;BME280;51019;46.090;6.350;2023-04-28T01:54:48;96524.16;;;14.30;76.58
64610;BME280;51019;46.090;6.350;2023-04-28T01:57:16;96531.56;;;14.26;75.13
64610;BME280;51019;46.090;6.350;2023-04-28T01:59:45;96521.00;;;14.26;73.78
64610;BME280;51019;46.090;6.350;2023-04-28T02:02:13;96524.66;;;14.41;71.98
64610;BME280;51019;46.090;6.350;2023-04-28T02:04:41;96526.28;;;14.59;70.20
64610;BME280;51019;46.090;6.350;2023-04-28T02:07:09;96533.84;;;14.78;68.99
64610;BME280;51019;46.090;6.350;2023-04-28T02:09:36;96523.66;;;14.50;69.99
64610;BME280;51019;46.090;6.350;2023-04-28T02:12:03;96526.28;;;14.67;69.03
64610;BME280;51019;46.090;6.350;2023-04-28T02:14:32;96521.03;;;14.67;66.82
64610;BME280;51019;46.090;6.350;2023-04-28T02:17:01;96522.28;;;14.79;66.58
64610;BME280;51019;46.090;6.350;2023-04-28T02:19:29;96516.53;;;14.75;67.76
64610;BME280;51019;46.090;6.350;2023-04-28T02:21:57;96516.00;;;14.88;67.04
64610;BME280;51019;46.090;6.350;2023-04-28T02:24:24;96501.72;;;14.66;68.35
64610;BME280;51019;46.090;6.350;2023-04-28T02:26:52;96508.53;;;14.44;69.39
64610;BME280;51019;46.090;6.350;2023-04-28T02:29:20;96512.47;;;14.48;69.13
64610;BME280;51019;46.090;6.350;2023-04-28T02:31:50;96502.56;;;14.50;67.92
64610;BME280;51019;46.090;6.350;2023-04-28T02:34:19;96493.03;;;14.41;68.97
64610;BME280;51019;46.090;6.350;2023-04-28T02:36:46;96506.38;;;14.40;70.00
64610;BME280;51019;46.090;6.350;2023-04-28T02:39:14;96510.47;;;14.26;71.16
64610;BME280;51019;46.090;6.350;2023-04-28T02:41:41;96502.72;;;14.25;71.92
64610;BME280;51019;46.090;6.350;2023-04-28T02:44:09;96519.53;;;14.15;73.53
64610;BME280;51019;46.090;6.350;2023-04-28T02:46:36;96524.66;;;14.09;74.40
64610;BME280;51019;46.090;6.350;2023-04-28T02:49:04;96531.41;;;13.95;77.42
64610;BME280;51019;46.090;6.350;2023-04-28T02:51:33;96534.03;;;14.03;75.44
64610;BME280;51019;46.090;6.350;2023-04-28T02:54:01;96531.56;;;13.86;75.77
64610;BME280;51019;46.090;6.350;2023-04-28T02:56:28;96538.47;;;13.87;76.21
64610;BME280;51019;46.090;6.350;2023-04-28T02:58:56;96540.59;;;13.91;76.29
64610;BME280;51019;46.090;6.350;2023-04-28T03:01:23;96539.78;;;13.91;75.65
64610;BME280;51019;46.090;6.350;2023-04-28T03:03:51;96534.53;;;14.07;73.67
64610;BME280;51019;46.090;6.350;2023-04-28T03:06:18;96544.91;;;14.25;72.98
64610;BME280;51019;46.090;6.350;2023-04-28T03:08:47;96544.41;;;14.05;74.85
64610;BME280;51019;46.090;6.350;2023-04-28T03:11:14;96550.97;;;13.93;76.07
64610;BME280;51019;46.090;6.350;2023-04-28T03:13:42;96540.13;;;13.96;77.29
64610;BME280;51019;46.090;6.350;2023-04-28T03:16:09;96550.81;;;13.86;80.52
64610;BME280;51019;46.090;6.350;2023-04-28T03:18:37;96548.69;;;13.98;78.43
64610;BME280;51019;46.090;6.350;2023-04-28T03:21:04;96556.88;;;13.70;82.68
64610;BME280;51019;46.090;6.350;2023-04-28T03:23:32;96552.72;;;13.68;83.24
64610;BME280;51019;46.090;6.350;2023-04-28T03:26:01;96537.09;;;13.66;85.19
64610;BME280;51019;46.090;6.350;2023-04-28T03:28:28;96547.31;;;13.77;85.28
64610;BME280;51019;46.090;6.350;2023-04-28T03:30:56;96552.41;;;13.71;85.52
64610;BME280;51019;46.090;6.350;2023-04-28T03:33:27;96556.19;;;13.60;86.68
64610;BME280;51019;46.090;6.350;2023-04-28T03:35:55;96552.56;;;13.61;87.92
64610;BME280;51019;46.090;6.350;2023-04-28T03:38:22;96545.56;;;13.36;89.03
64610;BME280;51019;46.090;6.350;2023-04-28T03:40:50;96557.47;;;13.48;87.25
64610;BME280;51019;46.090;6.350;2023-04-28T03:43:19;96548.59;;;13.49;87.87
64610;BME280;51019;46.090;6.350;2023-04-28T03:45:46;96542.66;;;13.55;85.18
64610;BME280;51019;46.090;6.350;2023-04-28T03:48:14;96540.84;;;13.48;81.88
64610;BME280;51019;46.090;6.350;2023-04-28T03:50:41;96549.94;;;13.77;79.30
64610;BME280;51019;46.090;6.350;2023-04-28T03:53:10;96539.09;;;13.89;78.04
64610;BME280;51019;46.090;6.350;2023-04-28T03:55:37;96560.50;;;13.77;78.86
64610;BME280;51019;46.090;6.350;2023-04-28T03:58:05;96560.78;;;13.66;81.05
64610;BME280;51019;46.090;6.350;2023-04-28T04:00:34;96557.16;;;13.59;84.24
64610;BME280;51019;46.090;6.350;2023-04-28T04:03:01;96562.06;;;13.46;84.03
64610;BME280;51019;46.090;6.350;2023-04-28T04:05:29;96557.16;;;13.51;84.33
64610;BME280;51019;46.090;6.350;2023-04-28T04:07:56;96553.97;;;13.39;85.80
64610;BME280;51019;46.090;6.350;2023-04-28T04:10:23;96559.41;;;13.46;86.54
64610;BME280;51019;46.090;6.350;2023-04-28T04:12:51;96558.88;;;13.34;88.66
64610;BME280;51019;46.090;6.350;2023-04-28T04:15:19;96560.16;;;13.22;88.48
64610;BME280;51019;46.090;6.350;2023-04-28T04:17:50;96530.59;;;13.28;89.09
64610;BME280;51019;46.090;6.350;2023-04-28T04:20:18;96569.09;;;13.29;88.99
64610;BME280;51019;46.090;6.350;2023-04-28T04:22:45;96545.34;;;13.21;88.04
64610;BME280;51019;46.090;6.350;2023-04-28T04:25:12;96547.28;;;13.53;87.95
64610;BME280;51019;46.090;6.350;2023-04-28T04:27:40;96530.47;;;13.46;88.30
64610;BME280;51019;46.090;6.350;2023-04-28T04:30:08;96539.84;;;13.49;87.66
64610;BME280;51019;46.090;6.350;2023-04-28T04:32:36;96544.47;;;13.13;91.65
64610;BME280;51019;46.090;6.350;2023-04-28T04:35:06;96504.41;;;13.19;91.37
64610;BME280;51019;46.090;6.350;2023-04-28T04:37:34;96536.47;;;13.22;92.82
64610;BME280;51019;46.090;6.350;2023-04-28T04:40:01;96546.66;;;13.17;92.92
64610;BME280;51019;46.090;6.350;2023-04-28T04:42:29;96537.13;;;13.24;91.64
64610;BME280;51019;46.090;6.350;2023-04-28T04:44:57;96537.81;;;13.34;93.19
64610;BME280;51019;46.090;6.350;2023-04-28T04:47:24;96537.28;;;13.23;93.56
64610;BME280;51019;46.090;6.350;2023-04-28T04:49:52;96543.91;;;13.27;91.57
64610;BME280;51019;46.090;6.350;2023-04-28T04:52:23;96532.38;;;13.20;91.54
64610;BME280;51019;46.090;6.350;2023-04-28T04:54:50;96532.41;;;13.36;92.85
64610;BME280;51019;46.090;6.350;2023-04-28T04:57:17;96536.56;;;13.13;96.11
64610;BME280;51019;46.090;6.350;2023-04-28T04:59:47;96542.22;;;12.92;98.06
64610;BME280;51019;46.090;6.350;2023-04-28T05:02:14;96545.88;;;12.99;97.07
64610;BME280;51019;46.090;6.350;2023-04-28T05:04:50;96532.00;;;13.15;95.38
64610;BME280;51019;46.090;6.350;2023-04-28T05:07:17;96547.16;;;13.21;97.17
64610;BME280;51019;46.090;6.350;2023-04-28T05:09:50;96546.09;;;13.14;97.40
64610;BME280;51019;46.090;6.350;2023-04-28T05:12:18;96535.72;;;13.12;97.92
64610;BME280;51019;46.090;6.350;2023-04-28T05:14:46;96549.50;;;13.32;98.24
64610;BME280;51019;46.090;6.350;2023-04-28T05:17:14;96563.31;;;13.26;100.00
64610;BME280;51019;46.090;6.350;2023-04-28T05:19:41;96554.72;;;13.24;100.00
64610;BME280;51019;46.090;6.350;2023-04-28T05:22:09;96552.13;;;13.32;96.33
64610;BME280;51019;46.090;6.350;2023-04-28T05:24:36;96557.94;;;13.43;98.84
64610;BME280;51019;46.090;6.350;2023-04-28T05:27:06;96556.41;;;13.33;96.71
64610;BME280;51019;46.090;6.350;2023-04-28T05:29:33;96554.53;;;13.59;93.74
64610;BME280;51019;46.090;6.350;2023-04-28T05:32:01;96539.63;;;13.34;100.00
64610;BME280;51019;46.090;6.350;2023-04-28T05:34:28;96536.41;;;13.48;97.68
64610;BME280;51019;46.090;6.350;2023-04-28T05:36:56;96544.44;;;13.47;100.00
64610;BME280;51019;46.090;6.350;2023-04-28T05:39:24;96553.31;;;13.37;100.00
64610;BME280;51019;46.090;6.350;2023-04-28T05:41:51;96560.06;;;13.40;100.00
64610;BME280;51019;46.090;6.350;2023-04-28T05:44:21;96551.91;;;13.59;98.89
64610;BME280;51019;46.090;6.350;2023-04-28T05:46:49;96564.44;;;13.65;98.79
64610;BME280;51019;46.090;6.350;2023-04-28T05:49:16;96568.38;;;13.77;96.15
64610;BME280;51019;46.090;6.350;2023-04-28T05:51:43;96547.78;;;13.57;94.83
64610;BME280;51019;46.090;6.350;2023-04-28T05:54:11;96566.19;;;13.57;99.65
64610;BME280;51019;46.090;6.350;2023-04-28T05:56:38;96569.09;;;13.88;96.05
64610;BME280;51019;46.090;6.350;2023-04-28T05:59:06;96554.28;;;13.95;91.20
64610;BME280;51019;46.090;6.350;2023-04-28T06:01:36;96570.13;;;14.19;90.15
64610;BME280;51019;46.090;6.350;2023-04-28T06:04:03;96584.31;;;14.50;91.79
64610;BME280;51019;46.090;6.350;2023-04-28T06:06:31;96578.06;;;14.51;91.69
64610;BME280;51019;46.090;6.350;2023-04-28T06:08:58;96561.88;;;14.38;92.98
64610;BME280;51019;46.090;6.350;2023-04-28T06:11:25;96580.53;;;14.53;90.91
64610;BME280;51019;46.090;6.350;2023-04-28T06:13:53;96585.97;;;14.51;89.49
64610;BME280;51019;46.090;6.350;2023-04-28T06:16:20;96579.53;;;14.70;89.36
64610;BME280;51019;46.090;6.350;2023-04-28T06:18:49;96576.03;;;14.86;88.80
64610;BME280;51019;46.090;6.350;2023-04-28T06:21:17;96578.19;;;14.74;84.07
64610;BME280;51019;46.090;6.350;2023-04-28T06:23:46;96576.38;;;14.83;86.79
64610;BME280;51019;46.090;6.350;2023-04-28T06:26:13;96562.50;;;14.81;88.02
64610;BME280;51019;46.090;6.350;2023-04-28T06:28:40;96569.75;;;14.95;89.16
64610;BME280;51019;46.090;6.350;2023-04-28T06:31:08;96565.41;;;15.18;86.58
64610;BME280;51019;46.090;6.350;2023-04-28T06:33:35;96573.47;;;15.17;81.93
64610;BME280;51019;46.090;6.350;2023-04-28T06:36:07;96559.00;;;15.52;80.56
64610;BME280;51019;46.090;6.350;2023-04-28T06:38:38;96567.63;;;15.46;79.24
64610;BME280;51019;46.090;6.350;2023-04-28T06:41:05;96567.88;;;15.59;79.47
64610;BME280;51019;46.090;6.350;2023-04-28T06:43:33;96557.75;;;15.79;75.17
64610;BME280;51019;46.090;6.350;2023-04-28T06:46:01;96560.41;;;16.02;75.72
64610;BME280;51019;46.090;6.350;2023-04-28T06:48:28;96558.44;;;15.95;74.69
64610;BME280;51019;46.090;6.350;2023-04-28T06:50:55;96564.09;;;16.15;72.96
64610;BME280;51019;46.090;6.350;2023-04-28T06:53:25;96571.16;;;16.23;70.01
64610;BME280;51019;46.090;6.350;2023-04-28T06:55:52;96580.50;;;16.33;69.81
64610;BME280;51019;46.090;6.350;2023-04-28T06:58:20;96583.59;;;16.14;70.26
64610;BME280;51019;46.090;6.350;2023-04-28T07:00:48;96577.06;;;15.79;70.02
64610;BME280;51019;46.090;6.350;2023-04-28T07:03:16;96577.00;;;15.87;71.69
64610;BME280;51019;46.090;6.350;2023-04-28T07:05:43;96578.50;;;15.82;72.46
64610;BME280;51019;46.090;6.350;2023-04-28T07:08:11;96580.13;;;15.91;72.34
64610;BME280;51019;46.090;6.350;2023-04-28T07:10:41;96583.78;;;15.82;69.75
64610;BME280;51019;46.090;6.350;2023-04-28T07:13:08;96581.72;;;16.00;70.07
64610;BME280;51019;46.090;6.350;2023-04-28T07:15:36;96599.69;;;16.05;70.82
64610;BME280;51019;46.090;6.350;2023-04-28T07:18:04;96606.03;;;15.95;71.16
64610;BME280;51019;46.090;6.350;2023-04-28T07:20:31;96606.94;;;16.33;71.86
64610;BME280;51019;46.090;6.350;2023-04-28T07:22:59;96602.31;;;16.36;73.74
64610;BME280;51019;46.090;6.350;2023-04-28T07:25:26;96615.13;;;16.47;72.49
64610;BME280;51019;46.090;6.350;2023-04-28T07:27:57;96605.28;;;16.55;67.61
64610;BME280;51019;46.090;6.350;2023-04-28T07:30:25;96591.50;;;16.60;68.85
64610;BME280;51019;46.090;6.350;2023-04-28T07:32:53;96615.84;;;17.01;65.28
64610;BME280;51019;46.090;6.350;2023-04-28T07:35:20;96611.34;;;17.16;67.76
64610;BME280;51019;46.090;6.350;2023-04-28T07:37:48;96607.91;;;17.30;69.04
64610;BME280;51019;46.090;6.350;2023-04-28T07:40:15;96602.59;;;17.16;67.69
64610;BME280;51019;46.090;6.350;2023-04-28T07:42:43;96585.16;;;17.21;68.24
64610;BME280;51019;46.090;6.350;2023-04-28T07:45:14;96605.63;;;17.57;68.98
64610;BME280;51019;46.090;6.350;2023-04-28T07:47:41;96603.44;;;17.75;67.46
64610;BME280;51019;46.090;6.350;2023-04-28T07:50:10;96594.84;;;17.73;65.41
64610;BME280;51019;46.090;6.350;2023-04-28T07:52:37;96603.91;;;17.64;64.35
64610;BME280;51019;46.090;6.350;2023-04-28T07:55:05;96603.47;;;17.96;63.82
64610;BME280;51019;46.090;6.350;2023-04-28T07:57:33;96604.81;;;17.71;62.64
64610;BME280;51019;46.090;6.350;2023-04-28T08:00:01;96595.84;;;18.08;59.71
64610;BME280;51019;46.090;6.350;2023-04-28T08:02:30;96604.78;;;18.22;62.49
64610;BME280;51019;46.090;6.350;2023-04-28T08:04:58;96602.94;;;18.22;61.35
64610;BME280;51019;46.090;6.350;2023-04-28T08:07:26;96612.50;;;18.17;64.60
64610;BME280;51019;46.090;6.350;2023-04-28T08:09:57;96608.75;;;18.32;62.49
64610;BME280;51019;46.090;6.350;2023-04-28T08:12:25;96598.66;;;18.21;62.78
64610;BME280;51019;46.090;6.350;2023-04-28T08:14:54;96604.97;;;18.41;62.73
64610;BME280;51019;46.090;6.350;2023-04-28T08:17:21;96614.22;;;18.45;62.53
64610;BME280;51019;46.090;6.350;2023-04-28T08:19:50;96612.94;;;18.41;61.29
64610;BME280;51019;46.090;6.350;2023-04-28T08:22:18;96617.69;;;18.46;63.51
64610;BME280;51019;46.090;6.350;2023-04-28T08:24:45;96608.53;;;18.48;64.16
64610;BME280;51019;46.090;6.350;2023-04-28T08:27:13;96615.72;;;18.55;67.54
64610;BME280;51019;46.090;6.350;2023-04-28T08:29:40;96617.50;;;18.90;65.64
64610;BME280;51019;46.090;6.350;2023-04-28T08:32:08;96604.34;;;19.38;62.27
64610;BME280;51019;46.090;6.350;2023-04-28T08:34:35;96613.81;;;19.19;62.15
64610;BME280;51019;46.090;6.350;2023-04-28T08:37:05;96616.56;;;20.08;56.44
64610;BME280;51019;46.090;6.350;2023-04-28T08:39:32;96622.44;;;20.71;54.26
64610;BME280;51019;46.090;6.350;2023-04-28T08:42:02;96606.72;;;21.22;53.82
64610;BME280;51019;46.090;6.350;2023-04-28T08:44:35;96610.16;;;21.09;53.62
64610;BME280;51019;46.090;6.350;2023-04-28T08:47:10;96611.97;;;19.88;57.76
64610;BME280;51019;46.090;6.350;2023-04-28T08:49:38;96614.22;;;19.85;57.39
64610;BME280;51019;46.090;6.350;2023-04-28T08:52:10;96626.97;;;20.90;57.44
64610;BME280;51019;46.090;6.350;2023-04-28T08:54:39;96608.13;;;20.98;54.76
64610;BME280;51019;46.090;6.350;2023-04-28T08:57:08;96609.34;;;20.82;56.15
64610;BME280;51019;46.090;6.350;2023-04-28T08:59:39;96608.63;;;20.34;56.84
64610;BME280;51019;46.090;6.350;2023-04-28T09:02:07;96589.69;;;21.10;53.47
64610;BME280;51019;46.090;6.350;2023-04-28T09:04:36;96610.59;;;21.19;53.50
64610;BME280;51019;46.090;6.350;2023-04-28T09:07:03;96613.44;;;21.18;53.31
64610;BME280;51019;46.090;6.350;2023-04-28T09:09:39;96620.00;;;19.95;57.93
64610;BME280;51019;46.090;6.350;2023-04-28T09:12:06;96621.25;;;20.06;59.53
64610;BME280;51019;46.090;6.350;2023-04-28T09:14:34;96613.72;;;20.22;58.82
64610;BME280;51019;46.090;6.350;2023-04-28T09:17:08;96598.50;;;20.84;57.46
64610;BME280;51019;46.090;6.350;2023-04-28T09:19:36;96612.78;;;22.20;51.91
64610;BME280;51019;46.090;6.350;2023-04-28T09:22:07;96623.28;;;22.46;51.43
64610;BME280;51019;46.090;6.350;2023-04-28T09:24:36;96614.56;;;21.68;54.04
64610;BME280;51019;46.090;6.350;2023-04-28T09:27:10;96619.41;;;21.26;55.29
64610;BME280;51019;46.090;6.350;2023-04-28T09:29:50;96616.31;;;21.36;53.99
64610;BME280;51019;46.090;6.350;2023-04-28T09:32:20;96611.75;;;21.56;53.44
64610;BME280;51019;46.090;6.350;2023-04-28T09:34:50;96590.31;;;21.89;53.07
64610;BME280;51019;46.090;6.350;2023-04-28T09:37:19;96593.44;;;22.24;51.37
64610;BME280;51019;46.090;6.350;2023-04-28T09:39:48;96586.00;;;22.64;50.32
64610;BME280;51019;46.090;6.350;2023-04-28T09:42:33;96584.44;;;22.19;49.16
64610;BME280;51019;46.090;6.350;2023-04-28T09:45:02;96582.38;;;21.76;50.15
64610;BME280;51019;46.090;6.350;2023-04-28T09:47:31;96589.50;;;22.33;49.69
64610;BME280;51019;46.090;6.350;2023-04-28T09:50:01;96577.75;;;21.96;51.62
64610;BME280;51019;46.090;6.350;2023-04-28T09:52:29;96576.66;;;21.66;53.77
64610;BME280;51019;46.090;6.350;2023-04-28T09:54:57;96578.91;;;21.62;55.69
64610;BME280;51019;46.090;6.350;2023-04-28T09:57:30;96581.50;;;21.82;55.72
64610;BME280;51019;46.090;6.350;2023-04-28T10:00:02;96582.38;;;21.69;55.84
64610;BME280;51019;46.090;6.350;2023-04-28T10:02:32;96572.25;;;20.81;55.87
64610;BME280;51019;46.090;6.350;2023-04-28T10:05:00;96575.72;;;21.01;55.27
64610;BME280;51019;46.090;6.350;2023-04-28T10:07:28;96552.41;;;20.83;57.08
64610;BME280;51019;46.090;6.350;2023-04-28T10:10:02;96554.03;;;20.58;56.14
64610;BME280;51019;46.090;6.350;2023-04-28T10:12:29;96571.22;;;21.08;55.84
64610;BME280;51019;46.090;6.350;2023-04-28T10:15:00;96577.81;;;20.99;56.67
64610;BME280;51019;46.090;6.350;2023-04-28T10:17:28;96566.72;;;20.95;56.91
64610;BME280;51019;46.090;6.350;2023-04-28T10:19:57;96566.91;;;21.14;57.12
64610;BME280;51019;46.090;6.350;2023-04-28T10:22:37;96569.63;;;20.87;56.16
64610;BME280;51019;46.090;6.350;2023-04-28T10:25:23;96561.59;;;21.00;57.39
64610;BME280;51019;46.090;6.350;2023-04-28T10:27:51;96553.63;;;20.94;58.41
64610;BME280;51019;46.090;6.350;2023-04-28T10:30:22;96547.69;;;20.85;57.10
64610;BME280;51019;46.090;6.350;2023-04-28T10:35:52;96555.88;;;20.84;58.50
64610;BME280;51019;46.090;6.350;2023-04-28T10:38:21;96552.41;;;20.83;58.43
64610;BME280;51019;46.090;6.350;2023-04-28T10:40:50;96548.94;;;20.76;58.16
64610;BME280;51019;46.090;6.350;2023-04-28T10:43:38;96527.78;;;21.01;57.68
64610;BME280;51019;46.090;6.350;2023-04-28T10:46:08;96537.81;;;20.92;59.02
64610;BME280;51019;46.090;6.350;2023-04-28T10:49:05;96555.84;;;21.10;57.88
64610;BME280;51019;46.090;6.350;2023-04-28T10:51:34;96549.53;;;20.98;57.66
64610;BME280;51019;46.090;6.350;2023-04-28T10:54:22;96550.31;;;21.18;57.45
64610;BME280;51019;46.090;6.350;2023-04-28T10:57:23;96564.22;;;21.40;56.27
64610;BME280;51019;46.090;6.350;2023-04-28T10:59:50;96553.97;;;21.11;56.48
64610;BME280;51019;46.090;6.350;2023-04-28T11:02:42;96551.97;;;21.06;56.69
64610;BME280;51019;46.090;6.350;2023-04-28T11:05:12;96551.56;;;20.89;57.76
64610;BME280;51019;46.090;6.350;2023-04-28T11:07:40;96549.09;;;21.01;60.10
64610;BME280;51019;46.090;6.350;2023-04-28T11:13:28;96550.13;;;21.20;62.84
64610;BME280;51019;46.090;6.350;2023-04-28T11:16:02;96534.94;;;21.07;62.33
64610;BME280;51019;46.090;6.350;2023-04-28T11:18:47;96538.81;;;21.24;59.14
64610;BME280;51019;46.090;6.350;2023-04-28T11:21:15;96521.44;;;21.22;58.62
64610;BME280;51019;46.090;6.350;2023-04-28T11:23:44;96541.03;;;21.92;56.59
64610;BME280;51019;46.090;6.350;2023-04-28T11:26:19;96535.91;;;21.90;56.16
64610;BME280;51019;46.090;6.350;2023-04-28T11:28:52;96527.84;;;22.10;57.34
64610;BME280;51019;46.090;6.350;2023-04-28T11:31:22;96534.13;;;22.47;56.87
64610;BME280;51019;46.090;6.350;2023-04-28T11:33:57;96510.81;;;22.36;57.23
64610;BME280;51019;46.090;6.350;2023-04-28T11:36:27;96514.69;;;22.65;55.34
64610;BME280;51019;46.090;6.350;2023-04-28T11:38:56;96509.97;;;22.35;54.05
64610;BME280;51019;46.090;6.350;2023-04-28T11:41:24;96505.75;;;22.53;55.31
64610;BME280;51019;46.090;6.350;2023-04-28T11:43:53;96494.50;;;22.69;55.91
64610;BME280;51019;46.090;6.350;2023-04-28T11:46:22;96503.53;;;23.36;52.98
64610;BME280;51019;46.090;6.350;2023-04-28T11:49:01;96495.72;;;22.73;55.30
64610;BME280;51019;46.090;6.350;2023-04-28T11:51:34;96493.34;;;23.81;52.10
64610;BME280;51019;46.090;6.350;2023-04-28T11:54:03;96474.97;;;23.84;51.72
64610;BME280;51019;46.090;6.350;2023-04-28T11:56:36;96492.53;;;23.80;52.30
64610;BME280;51019;46.090;6.350;2023-04-28T11:59:06;96489.03;;;24.75;50.67
64610;BME280;51019;46.090;6.350;2023-04-28T12:01:44;96490.00;;;23.97;51.23
64610;BME280;51019;46.090;6.350;2023-04-28T12:04:25;96484.78;;;23.72;51.01
64610;BME280;51019;46.090;6.350;2023-04-28T12:07:04;96487.50;;;23.36;52.30
64610;BME280;51019;46.090;6.350;2023-04-28T12:09:37;96484.16;;;23.22;52.64
64610;BME280;51019;46.090;6.350;2023-04-28T12:12:07;96487.13;;;23.32;52.28
64610;BME280;51019;46.090;6.350;2023-04-28T12:14:54;96485.03;;;22.73;54.94
64610;BME280;51019;46.090;6.350;2023-04-28T12:17:22;96487.53;;;22.93;53.95
64610;BME280;51019;46.090;6.350;2023-04-28T12:19:53;96491.41;;;23.15;53.61
64610;BME280;51019;46.090;6.350;2023-04-28T12:22:21;96492.41;;;23.21;53.29
64610;BME280;51019;46.090;6.350;2023-04-28T12:25:03;96492.44;;;22.96;53.22
64610;BME280;51019;46.090;6.350;2023-04-28T12:27:33;96485.69;;;22.93;54.77
64610;BME280;51019;46.090;6.350;2023-04-28T12:30:03;96491.50;;;22.90;54.95
64610;BME280;51019;46.090;6.350;2023-04-28T12:32:50;96485.47;;;22.70;54.97
64610;BME280;51019;46.090;6.350;2023-04-28T12:35:23;96484.44;;;22.96;54.22
64610;BME280;51019;46.090;6.350;2023-04-28T12:37:51;96475.78;;;22.75;54.08
64610;BME280;51019;46.090;6.350;2023-04-28T12:40:20;96479.38;;;23.06;54.29
64610;BME280;51019;46.090;6.350;2023-04-28T12:42:48;96477.84;;;23.35;52.30
64610;BME280;51019;46.090;6.350;2023-04-28T12:45:18;96485.25;;;23.69;52.38
64610;BME280;51019;46.090;6.350;2023-04-28T12:47:46;96491.84;;;23.48;52.30
64610;BME280;51019;46.090;6.350;2023-04-28T12:50:13;96466.03;;;22.88;53.33
64610;BME280;51019;46.090;6.350;2023-04-28T12:52:44;96480.88;;;23.02;54.19
64610;BME280;51019;46.090;6.350;2023-04-28T12:55:12;96484.22;;;23.52;51.53
64610;BME280;51019;46.090;6.350;2023-04-28T12:57:42;96480.78;;;22.65;52.84
64610;BME280;51019;46.090;6.350;2023-04-28T13:00:11;96465.72;;;22.77;52.60
64610;BME280;51019;46.090;6.350;2023-04-28T13:02:42;96474.09;;;22.31;52.70
64610;BME280;51019;46.090;6.350;2023-04-28T13:05:11;96479.06;;;22.53;53.90
64610;BME280;51019;46.090;6.350;2023-04-28T13:07:43;96451.69;;;22.32;55.15
64610;BME280;51019;46.090;6.350;2023-04-28T13:10:12;96475.97;;;22.74;54.00
64610;BME280;51019;46.090;6.350;2023-04-28T13:12:42;96473.72;;;22.77;54.67
64610;BME280;51019;46.090;6.350;2023-04-28T13:15:10;96469.78;;;22.55;55.94
64610;BME280;51019;46.090;6.350;2023-04-28T13:17:38;96459.78;;;22.69;54.52